createdAt,value
2022-10-29T00:01:08.366Z,11.63
2022-10-29T00:03:37.369Z,11.90
2022-10-29T00:06:07.440Z,12.02
2022-10-29T00:08:37.639Z,11.20
2022-10-29T00:11:12.100Z,10.98
2022-10-29T00:13:40.399Z,11.35
2022-10-29T00:16:10.147Z,10.85
2022-10-29T00:18:38.659Z,11.70
2022-10-29T00:21:09.626Z,11.32
2022-10-29T00:23:38.054Z,11.35
2022-10-29T00:26:06.815Z,10.68
2022-10-29T00:28:36.847Z,10.77
2022-10-29T00:31:06.450Z,11.25
2022-10-29T00:33:35.143Z,11.18
2022-10-29T00:36:05.883Z,11.45
2022-10-29T00:38:35.528Z,10.55
2022-10-29T00:41:05.096Z,11.27
2022-10-29T00:43:37.781Z,10.38
2022-10-29T00:46:09.935Z,10.35
2022-10-29T00:48:43.490Z,10.35
2022-10-29T00:51:14.990Z,10.77
2022-10-29T00:53:47.152Z,10.68
2022-10-29T00:56:16.111Z,10.38
2022-10-29T00:58:46.536Z,10.50
2022-10-29T01:01:15.510Z,9.73
2022-10-29T01:03:43.738Z,10.32
2022-10-29T01:06:11.978Z,10.18
2022-10-29T01:08:40.158Z,10.85
2022-10-29T01:11:18.928Z,10.43
2022-10-29T01:13:59.189Z,10.27
2022-10-29T01:16:34.758Z,10.32
2022-10-29T01:19:13.952Z,9.77
2022-10-29T01:21:45.420Z,10.23
2022-10-29T01:24:41.022Z,10.18
2022-10-29T01:27:44.795Z,10.52
2022-10-29T01:30:24.652Z,9.40
2022-10-29T01:33:07.031Z,10.02
2022-10-29T01:35:46.230Z,9.15
2022-10-29T01:38:29.874Z,10.10
2022-10-29T01:41:04.499Z,9.70
2022-10-29T01:43:37.635Z,10.82
2022-10-29T01:46:10.593Z,10.00
2022-10-29T01:48:45.405Z,10.52
2022-10-29T01:51:19.102Z,10.32
2022-10-29T01:53:47.889Z,9.80
2022-10-29T01:56:16.076Z,10.32
2022-10-29T01:58:48.715Z,9.82
2022-10-29T02:01:32.423Z,10.50
2022-10-29T02:04:14.492Z,9.95
2022-10-29T02:06:52.435Z,10.73
2022-10-29T02:09:28.613Z,9.95
2022-10-29T02:12:04.460Z,11.65
2022-10-29T02:14:38.040Z,10.23
2022-10-29T02:17:07.513Z,9.85
2022-10-29T02:19:38.083Z,10.13
2022-10-29T02:22:06.509Z,10.05
2022-10-29T02:24:34.657Z,9.73
2022-10-29T02:27:02.888Z,10.00
2022-10-29T02:29:31.051Z,9.57
2022-10-29T02:31:59.221Z,10.00
2022-10-29T02:34:27.325Z,9.30
2022-10-29T02:36:56.962Z,10.00
2022-10-29T02:39:25.168Z,10.27
2022-10-29T02:41:53.319Z,10.27
2022-10-29T02:44:21.535Z,9.77
2022-10-29T02:46:49.747Z,9.95
2022-10-29T02:49:17.991Z,9.25
2022-10-29T02:51:46.228Z,9.35
2022-10-29T02:54:15.751Z,9.15
2022-10-29T02:56:44.039Z,9.13
2022-10-29T02:59:12.257Z,9.52
2022-10-29T03:01:40.541Z,9.23
2022-10-29T03:04:08.781Z,9.43
2022-10-29T03:06:37.839Z,9.48
2022-10-29T03:09:06.278Z,9.00
2022-10-29T03:11:35.915Z,9.55
2022-10-29T03:14:04.097Z,9.15
2022-10-29T03:16:32.644Z,9.10
2022-10-29T03:19:01.032Z,8.98
2022-10-29T03:21:29.410Z,8.52
2022-10-29T03:23:57.639Z,9.02
2022-10-29T03:26:25.914Z,9.02
2022-10-29T03:28:57.027Z,8.70
2022-10-29T03:31:25.244Z,7.88
2022-10-29T03:33:53.475Z,8.63
2022-10-29T03:36:21.879Z,8.60
2022-10-29T03:38:50.108Z,8.35
2022-10-29T03:41:18.336Z,8.80
2022-10-29T03:43:46.584Z,8.02
2022-10-29T03:46:16.202Z,8.55
2022-10-29T03:48:44.341Z,8.90
2022-10-29T03:51:12.577Z,7.78
2022-10-29T03:53:40.721Z,8.20
2022-10-29T03:56:10.527Z,9.05
2022-10-29T03:58:38.743Z,8.63
2022-10-29T04:01:08.827Z,8.68
2022-10-29T04:03:42.360Z,9.02
2022-10-29T04:06:12.696Z,9.45
2022-10-29T04:08:40.973Z,8.52
2022-10-29T04:11:11.593Z,8.80
2022-10-29T04:13:39.961Z,8.70
2022-10-29T04:16:08.585Z,8.70
2022-10-29T04:18:38.140Z,8.77
2022-10-29T04:22:57.125Z,8.98
2022-10-29T04:29:32.689Z,8.32
2022-10-29T04:32:00.848Z,8.80
2022-10-29T04:34:30.387Z,8.63
2022-10-29T04:36:58.574Z,8.20
2022-10-29T04:39:26.832Z,8.23
2022-10-29T04:41:54.947Z,8.68
2022-10-29T04:44:23.160Z,8.13
2022-10-29T04:46:51.286Z,7.70
2022-10-29T04:49:19.651Z,8.30
2022-10-29T04:51:49.328Z,7.90
2022-10-29T04:54:17.503Z,7.60
2022-10-29T04:56:45.646Z,7.70
2022-10-29T04:59:13.994Z,7.82
2022-10-29T05:01:42.168Z,7.57
2022-10-29T05:04:10.451Z,7.20
2022-10-29T05:06:38.646Z,7.63
2022-10-29T05:09:08.243Z,7.10
2022-10-29T05:11:36.414Z,8.20
2022-10-29T05:14:04.818Z,7.88
2022-10-29T05:16:33.588Z,7.60
2022-10-29T05:19:02.863Z,7.43
2022-10-29T05:21:31.201Z,7.90
2022-10-29T05:23:59.558Z,8.07
2022-10-29T05:26:31.254Z,7.97
2022-10-29T05:28:59.549Z,7.45
2022-10-29T05:31:27.766Z,7.95
2022-10-29T05:33:56.219Z,8.30
2022-10-29T05:36:24.713Z,7.47
2022-10-29T05:38:52.986Z,7.50
2022-10-29T05:41:21.571Z,7.07
2022-10-29T05:43:51.937Z,7.93
2022-10-29T05:46:20.195Z,7.72
2022-10-29T05:48:48.442Z,7.63
2022-10-29T05:51:16.650Z,7.32
2022-10-29T05:53:44.848Z,7.72
2022-10-29T05:56:12.961Z,7.82
2022-10-29T05:58:41.277Z,7.07
2022-10-29T06:01:11.867Z,7.43
2022-10-29T06:03:40.491Z,8.07
2022-10-29T06:06:09.168Z,6.70
2022-10-29T06:08:37.465Z,7.10
2022-10-29T06:11:06.117Z,6.82
2022-10-29T06:13:34.553Z,6.60
2022-10-29T06:16:02.760Z,7.57
2022-10-29T06:18:32.372Z,7.38
2022-10-29T06:21:01.453Z,7.30
2022-10-29T06:23:30.153Z,6.50
2022-10-29T06:26:00.855Z,6.68
2022-10-29T06:28:33.620Z,6.63
2022-10-29T06:31:03.285Z,7.00
2022-10-29T06:33:32.911Z,6.53
2022-10-29T06:36:01.728Z,6.32
2022-10-29T06:38:30.060Z,6.75
2022-10-29T06:40:58.545Z,6.57
2022-10-29T06:43:26.794Z,6.47
2022-10-29T06:45:55.653Z,6.90
2022-10-29T06:48:23.961Z,6.78
2022-10-29T06:50:53.589Z,6.68
2022-10-29T06:53:22.131Z,6.30
2022-10-29T06:55:50.373Z,6.35
2022-10-29T06:58:20.231Z,6.50
2022-10-29T07:00:49.372Z,6.15
2022-10-29T07:03:18.847Z,6.20
2022-10-29T07:05:47.430Z,6.75
2022-10-29T07:08:16.992Z,5.85
2022-10-29T07:10:45.204Z,6.38
2022-10-29T07:13:13.333Z,6.07
2022-10-29T07:15:41.576Z,6.07
2022-10-29T07:18:10.544Z,6.00
2022-10-29T07:20:40.446Z,6.30
2022-10-29T07:23:09.092Z,6.90
2022-10-29T07:25:39.747Z,6.32
2022-10-29T07:28:11.552Z,7.18
2022-10-29T07:30:40.274Z,6.70
2022-10-29T07:33:08.725Z,5.90
2022-10-29T07:35:37.057Z,6.47
2022-10-29T07:38:09.179Z,6.30
2022-10-29T07:40:41.678Z,5.85
2022-10-29T07:43:10.915Z,6.38
2022-10-29T07:45:39.143Z,6.82
2022-10-29T07:48:08.821Z,6.32
2022-10-29T07:50:38.306Z,6.22
2022-10-29T07:53:07.861Z,6.38
2022-10-29T07:55:36.235Z,6.88
2022-10-29T07:58:07.936Z,6.90
2022-10-29T08:00:38.547Z,6.72
2022-10-29T08:03:07.446Z,7.10
2022-10-29T08:05:35.841Z,6.25
2022-10-29T08:08:04.016Z,6.55
2022-10-29T08:10:33.139Z,6.75
2022-10-29T08:13:04.227Z,7.38
2022-10-29T08:15:35.839Z,7.32
2022-10-29T08:18:10.421Z,7.13
2022-10-29T08:20:38.646Z,6.90
2022-10-29T08:23:06.786Z,6.72
2022-10-29T08:25:36.733Z,7.15
2022-10-29T08:28:05.953Z,7.10
2022-10-29T08:30:35.882Z,6.90
2022-10-29T08:33:04.673Z,6.47
2022-10-29T08:35:33.364Z,7.07
2022-10-29T08:38:01.704Z,7.00
2022-10-29T08:40:32.716Z,6.55
2022-10-29T08:43:55.429Z,6.40
2022-10-29T08:46:34.524Z,6.88
2022-10-29T08:49:07.341Z,7.20
2022-10-29T08:51:40.072Z,7.40
2022-10-29T08:54:30.165Z,6.65
2022-10-29T08:57:02.865Z,6.65
2022-10-29T08:59:35.280Z,6.88
2022-10-29T09:02:05.021Z,6.97
2022-10-29T09:04:35.974Z,7.20
2022-10-29T09:07:40.315Z,6.85
2022-10-29T09:10:17.931Z,6.60
2022-10-29T09:13:00.349Z,7.88
2022-10-29T09:15:57.625Z,8.23
2022-10-29T09:18:36.720Z,7.95
2022-10-29T09:21:13.741Z,8.40
2022-10-29T09:24:03.087Z,7.78
2022-10-29T09:26:34.930Z,8.35
2022-10-29T09:29:23.507Z,7.80
2022-10-29T09:31:55.876Z,8.80
2022-10-29T09:34:31.966Z,8.95
2022-10-29T09:37:00.266Z,8.23
2022-10-29T09:39:34.606Z,7.97
2022-10-29T09:42:03.984Z,8.73
2022-10-29T09:44:39.637Z,8.07
2022-10-29T09:47:15.036Z,8.85
2022-10-29T09:50:08.488Z,8.20
2022-10-29T09:52:40.923Z,8.57
2022-10-29T09:55:18.411Z,9.00
2022-10-29T09:57:47.095Z,8.63
2022-10-29T10:00:20.993Z,8.95
2022-10-29T10:02:55.013Z,9.77
2022-10-29T10:05:28.692Z,9.27
2022-10-29T10:08:12.148Z,9.60
2022-10-29T10:10:52.811Z,9.65
2022-10-29T10:13:26.104Z,10.52
2022-10-29T10:15:57.916Z,10.40
2022-10-29T10:18:28.032Z,11.13
2022-10-29T10:21:07.640Z,11.10
2022-10-29T10:23:46.320Z,11.27
2022-10-29T10:26:41.580Z,12.70
2022-10-29T10:29:17.927Z,10.75
2022-10-29T10:31:47.843Z,12.15
2022-10-29T10:34:20.189Z,11.88
2022-10-29T10:36:52.793Z,11.70
2022-10-29T10:39:26.166Z,13.55
2022-10-29T10:41:56.144Z,14.90
2022-10-29T10:44:24.797Z,13.43
2022-10-29T10:46:55.539Z,15.68
2022-10-29T10:49:31.794Z,15.80
2022-10-29T10:52:05.123Z,14.88
2022-10-29T10:54:37.805Z,14.05
2022-10-29T10:57:20.338Z,16.17
2022-10-29T10:59:55.961Z,16.52
2022-10-29T11:02:31.661Z,16.13
2022-10-29T11:05:07.739Z,16.17
2022-10-29T11:07:42.468Z,16.02
2022-10-29T11:10:15.009Z,15.30
2022-10-29T11:12:47.433Z,15.30
2022-10-29T11:15:23.088Z,14.98
2022-10-29T11:17:57.306Z,15.20
2022-10-29T11:20:29.206Z,14.95
2022-10-29T11:23:07.961Z,14.75
2022-10-29T11:25:42.753Z,14.75
2022-10-29T11:28:30.587Z,13.60
2022-10-29T11:31:06.474Z,13.55
2022-10-29T11:33:42.863Z,13.43
2022-10-29T11:36:17.536Z,12.77
2022-10-29T11:38:51.858Z,13.10
2022-10-29T11:41:28.053Z,13.00
2022-10-29T11:43:56.453Z,12.98
2022-10-29T11:46:33.987Z,13.05
2022-10-29T11:49:12.371Z,13.23
2022-10-29T11:51:51.795Z,11.45
2022-10-29T11:54:37.777Z,12.23
2022-10-29T11:57:13.935Z,18.23
2022-10-29T11:59:55.770Z,22.67
2022-10-29T12:02:36.458Z,15.15
2022-10-29T12:05:15.191Z,15.43
2022-10-29T12:07:56.556Z,14.25
2022-10-29T12:10:46.535Z,13.82
2022-10-29T12:13:25.941Z,12.75
2022-10-29T12:16:08.798Z,12.02
2022-10-29T12:18:44.303Z,13.23
2022-10-29T12:21:23.130Z,13.05
2022-10-29T12:24:02.710Z,12.18
2022-10-29T12:26:38.774Z,10.60
2022-10-29T12:29:17.139Z,12.32
2022-10-29T12:31:56.008Z,11.15
2022-10-29T12:34:30.934Z,10.27
2022-10-29T12:37:10.020Z,10.35
2022-10-29T12:39:42.188Z,10.55
2022-10-29T12:42:18.621Z,9.95
2022-10-29T12:44:57.457Z,8.95
2022-10-29T12:47:28.012Z,8.90
2022-10-29T12:50:06.622Z,9.40
2022-10-29T12:52:39.908Z,9.38
2022-10-29T12:55:11.560Z,8.60
2022-10-29T12:57:41.380Z,8.75
2022-10-29T13:00:44.924Z,8.68
2022-10-29T13:03:13.282Z,8.77
2022-10-29T13:05:43.520Z,10.05
2022-10-29T13:08:36.211Z,8.95
2022-10-29T13:11:20.632Z,9.00
2022-10-29T13:13:56.914Z,8.57
2022-10-29T13:16:31.628Z,8.60
2022-10-29T13:19:18.254Z,8.23
2022-10-29T13:22:33.394Z,8.82
2022-10-29T13:25:50.323Z,9.35
2022-10-29T13:28:50.673Z,8.80
2022-10-29T13:31:58.381Z,8.85
2022-10-29T13:34:53.009Z,8.57
2022-10-29T13:37:52.941Z,8.85
2022-10-29T13:41:04.317Z,7.80
2022-10-29T13:43:34.140Z,6.90
2022-10-29T13:46:45.884Z,7.63
2022-10-29T13:49:18.838Z,6.75
2022-10-29T13:51:56.004Z,6.93
2022-10-29T13:54:39.359Z,7.50
2022-10-29T13:57:17.013Z,8.07
2022-10-29T13:59:51.996Z,7.82
2022-10-29T14:02:45.137Z,7.85
2022-10-29T14:05:20.576Z,7.28
2022-10-29T14:07:56.525Z,7.75
2022-10-29T14:10:31.880Z,7.97
2022-10-29T14:13:06.111Z,6.97
2022-10-29T14:15:34.743Z,8.07
2022-10-29T14:18:18.395Z,7.22
2022-10-29T14:20:55.934Z,7.60
2022-10-29T14:23:26.466Z,8.10
2022-10-29T14:25:56.012Z,7.95
2022-10-29T14:28:27.044Z,7.95
2022-10-29T14:31:04.244Z,7.97
2022-10-29T14:33:33.991Z,8.38
2022-10-29T14:36:10.347Z,8.63
2022-10-29T14:38:45.722Z,8.27
2022-10-29T14:41:15.671Z,9.02
2022-10-29T14:43:44.445Z,9.40
2022-10-29T14:46:26.242Z,8.80
2022-10-29T14:49:02.332Z,8.95
2022-10-29T14:51:34.397Z,9.20
2022-10-29T14:54:06.723Z,9.90
2022-10-29T14:56:37.580Z,9.45
2022-10-29T14:59:16.406Z,10.18
2022-10-29T15:01:56.955Z,9.77
2022-10-29T15:04:31.181Z,10.43
2022-10-29T15:07:25.901Z,10.52
2022-10-29T15:10:18.543Z,10.90
2022-10-29T15:12:47.538Z,11.05
2022-10-29T15:15:27.612Z,11.43
2022-10-29T15:18:01.598Z,10.80
2022-10-29T15:20:34.640Z,10.05
2022-10-29T15:23:03.951Z,10.70
2022-10-29T15:25:37.210Z,10.80
2022-10-29T15:28:10.357Z,10.93
2022-10-29T15:30:39.900Z,11.07
2022-10-29T15:33:16.020Z,11.52
2022-10-29T15:35:51.812Z,10.65
2022-10-29T15:39:11.596Z,11.15
2022-10-29T15:41:48.478Z,11.75
2022-10-29T15:44:30.792Z,10.98
2022-10-29T15:47:00.385Z,11.80
2022-10-29T15:49:32.362Z,11.60
2022-10-29T15:52:01.865Z,11.65
2022-10-29T15:54:30.445Z,11.32
2022-10-29T15:57:00.013Z,11.40
2022-10-29T15:59:28.243Z,11.10
2022-10-29T16:01:56.594Z,11.35
2022-10-29T16:04:24.762Z,11.75
2022-10-29T16:06:53.070Z,11.20
2022-10-29T16:09:22.084Z,12.00
2022-10-29T16:11:52.070Z,13.90
2022-10-29T16:14:21.831Z,12.45
2022-10-29T16:16:50.027Z,12.65
2022-10-29T16:19:18.170Z,12.52
2022-10-29T16:21:46.452Z,12.80
2022-10-29T16:24:15.853Z,15.60
2022-10-29T16:26:44.198Z,13.68
2022-10-29T16:29:16.137Z,13.35
2022-10-29T16:31:46.006Z,14.63
2022-10-29T16:34:17.245Z,14.25
2022-10-29T16:36:48.042Z,13.35
2022-10-29T16:39:16.197Z,13.52
2022-10-29T16:41:44.779Z,14.32
2022-10-29T16:44:13.817Z,14.10
2022-10-29T16:46:42.127Z,14.23
2022-10-29T16:49:11.660Z,15.13
2022-10-29T16:51:39.966Z,14.38
2022-10-29T16:54:08.168Z,15.88
2022-10-29T16:56:36.479Z,15.60
2022-10-29T16:59:04.705Z,15.95
2022-10-29T17:01:33.079Z,16.00
2022-10-29T17:04:01.229Z,15.30
2022-10-29T17:06:31.092Z,15.82
2022-10-29T17:08:59.328Z,15.75
2022-10-29T17:11:27.585Z,17.02
2022-10-29T17:13:55.766Z,16.02
2022-10-29T17:16:24.131Z,16.50
2022-10-29T17:18:52.380Z,18.00
2022-10-29T17:21:20.867Z,17.85
2022-10-29T17:23:50.610Z,17.92
2022-10-29T17:26:18.969Z,18.80
2022-10-29T17:28:47.218Z,17.33
2022-10-29T17:31:16.342Z,18.02
2022-10-29T17:33:44.502Z,17.38
2022-10-29T17:36:14.952Z,19.15
2022-10-29T17:38:43.343Z,18.13
2022-10-29T17:41:13.199Z,17.88
2022-10-29T17:43:41.352Z,17.52
2022-10-29T17:46:09.761Z,18.45
2022-10-29T17:48:38.900Z,17.95
2022-10-29T17:51:08.434Z,17.65
2022-10-29T17:53:38.380Z,18.40
2022-10-29T17:56:07.223Z,17.27
2022-10-29T17:58:38.761Z,18.08
2022-10-29T18:01:08.552Z,18.98
2022-10-29T18:03:37.662Z,18.27
2022-10-29T18:06:08.348Z,18.70
2022-10-29T18:08:37.519Z,18.42
2022-10-29T18:11:06.980Z,18.33
2022-10-29T18:13:41.320Z,18.38
2022-10-29T18:16:10.724Z,19.88
2022-10-29T18:18:54.431Z,20.15
2022-10-29T18:21:29.262Z,19.88
2022-10-29T18:23:57.378Z,20.17
2022-10-29T18:26:27.821Z,20.35
2022-10-29T18:28:57.825Z,20.67
2022-10-29T18:31:28.599Z,20.08
2022-10-29T18:33:57.220Z,20.25
2022-10-29T18:36:25.436Z,20.15
2022-10-29T18:38:55.185Z,20.80
2022-10-29T18:41:23.914Z,21.17
2022-10-29T18:43:52.565Z,21.55
2022-10-29T18:46:22.290Z,22.05
2022-10-29T18:48:51.250Z,23.80
2022-10-29T18:51:21.286Z,21.90
2022-10-29T18:53:49.560Z,21.77
2022-10-29T18:56:20.545Z,21.90
2022-10-29T18:58:49.429Z,21.77
2022-10-29T19:01:23.523Z,22.92
2022-10-29T19:03:53.524Z,21.92
2022-10-29T19:06:22.483Z,22.95
2022-10-29T19:08:51.542Z,22.98
2022-10-29T19:11:21.555Z,22.30
2022-10-29T19:13:52.177Z,21.40
2022-10-29T19:16:22.102Z,21.55
2022-10-29T19:18:55.728Z,22.25
2022-10-29T19:21:24.589Z,21.58
2022-10-29T19:23:56.056Z,22.02
2022-10-29T19:26:25.731Z,23.17
2022-10-29T19:28:53.899Z,21.65
2022-10-29T19:31:26.402Z,23.05
2022-10-29T19:33:56.904Z,20.58
2022-10-29T19:36:25.999Z,21.38
2022-10-29T19:38:54.243Z,21.65
2022-10-29T19:41:22.456Z,20.85
2022-10-29T19:43:50.807Z,22.38
2022-10-29T19:46:22.918Z,21.58
2022-10-29T19:48:53.852Z,21.73
2022-10-29T19:51:22.931Z,21.92
2022-10-29T19:53:52.435Z,20.63
2022-10-29T19:56:21.392Z,21.67
2022-10-29T19:58:50.031Z,22.42
2022-10-29T20:01:19.609Z,22.65
2022-10-29T20:03:48.268Z,23.67
2022-10-29T20:06:18.296Z,23.02
2022-10-29T20:08:46.700Z,23.77
2022-10-29T20:11:14.818Z,22.60
2022-10-29T20:13:43.235Z,23.52
2022-10-29T20:16:14.711Z,23.00
2022-10-29T20:18:42.925Z,23.13
2022-10-29T20:21:11.625Z,26.38
2022-10-29T20:23:41.849Z,24.63
2022-10-29T20:26:10.456Z,25.42
2022-10-29T20:28:39.374Z,24.70
2022-10-29T20:31:31.046Z,25.77
2022-10-29T20:34:01.436Z,24.45
2022-10-29T20:36:31.635Z,26.52
2022-10-29T20:39:01.519Z,25.50
2022-10-29T20:41:30.386Z,26.92
2022-10-29T20:44:01.263Z,27.50
2022-10-29T20:46:29.976Z,26.55
2022-10-29T20:48:58.175Z,26.88
2022-10-29T20:51:26.576Z,27.70
2022-10-29T20:53:55.746Z,28.33
2022-10-29T20:56:26.612Z,27.63
2022-10-29T20:58:55.154Z,29.40
2022-10-29T21:01:25.087Z,28.10
2022-10-29T21:03:53.458Z,30.27
2022-10-29T21:06:21.862Z,29.33
2022-10-29T21:08:52.016Z,28.35
2022-10-29T21:11:21.742Z,29.77
2022-10-29T21:13:51.947Z,30.23
2022-10-29T21:16:22.028Z,31.50
2022-10-29T21:18:52.179Z,32.55
2022-10-29T21:21:20.827Z,31.95
2022-10-29T21:23:49.295Z,31.15
2022-10-29T21:26:19.585Z,31.13
2022-10-29T21:28:50.684Z,30.27
2022-10-29T21:31:21.843Z,29.80
2022-10-29T21:33:50.871Z,29.45
2022-10-29T21:36:19.314Z,29.98
2022-10-29T21:38:48.281Z,28.98
2022-10-29T21:41:16.885Z,27.85
2022-10-29T21:43:45.241Z,27.67
2022-10-29T21:46:14.809Z,28.25
2022-10-29T21:48:43.030Z,27.55
2022-10-29T21:51:13.097Z,28.45
2022-10-29T21:53:41.539Z,29.75
2022-10-29T21:56:16.091Z,29.02
2022-10-29T21:58:45.101Z,29.27
2022-10-29T22:01:16.079Z,28.20
2022-10-29T22:03:45.931Z,28.42
2022-10-29T22:06:16.411Z,27.65
2022-10-29T22:08:45.364Z,28.17
2022-10-29T22:11:14.641Z,28.50
2022-10-29T22:13:42.879Z,29.58
2022-10-29T22:16:11.740Z,28.65
2022-10-29T22:18:41.774Z,27.65
2022-10-29T22:21:13.219Z,27.92
2022-10-29T22:23:45.335Z,26.60
2022-10-29T22:26:15.076Z,27.63
2022-10-29T22:28:43.569Z,28.20
2022-10-29T22:31:12.627Z,27.00
2022-10-29T22:33:42.791Z,26.02
2022-10-29T22:36:13.057Z,27.48
2022-10-29T22:38:41.294Z,25.73
2022-10-29T22:41:11.056Z,25.42
2022-10-29T22:43:39.339Z,23.75
2022-10-29T22:46:08.977Z,24.70
2022-10-29T22:48:37.529Z,24.23
2022-10-29T22:51:10.699Z,24.02
2022-10-29T22:53:38.996Z,25.20
2022-10-29T22:56:07.971Z,24.67
2022-10-29T22:58:36.194Z,25.27
2022-10-29T23:01:06.407Z,24.13
2022-10-29T23:03:35.075Z,23.70
2022-10-29T23:06:05.088Z,23.70
2022-10-29T23:08:36.220Z,23.27
2022-10-29T23:11:08.169Z,23.05
2022-10-29T23:13:36.520Z,23.45
2022-10-29T23:16:05.136Z,22.55
2022-10-29T23:18:33.400Z,23.13
2022-10-29T23:21:02.873Z,22.40
2022-10-29T23:23:32.006Z,23.00
2022-10-29T23:26:03.147Z,22.73
2022-10-29T23:28:32.977Z,23.25
2022-10-29T23:31:02.805Z,22.20
2022-10-29T23:33:32.596Z,22.92
2022-10-29T23:36:03.292Z,23.13
2022-10-29T23:38:31.683Z,23.20
2022-10-29T23:41:01.284Z,23.42
2022-10-29T23:43:30.204Z,22.85
2022-10-29T23:45:58.484Z,21.85
2022-10-29T23:48:27.244Z,23.45
2022-10-29T23:50:56.510Z,22.10
2022-10-29T23:53:26.007Z,22.60
2022-10-29T23:55:54.185Z,22.20
2022-10-29T23:58:23.860Z,22.95
